Whiteface, Minnesota
Current Conditions -  °F | °C
As of 7:11 PM on Saturday 20 Dec 2014 (Local Time) from KEVM Reporting Station
Haze Haze  
Wind Chill: 21°   Ceiling: 700
Heat Index: 30°   Visibility: 5mi
Dew Point: 28°   Wind: 10mph
Humidity: 93%   Direction: 180°S
Pressure: 30.04"   Gusts: NA
Location:  47.2457°N, 92.4531°W
Report Text: KEVM 210111Z AUTO 18009KT 5SM BR OVC007 M01/M02 A3004 RMK AO2
Loading
Personal Weather Stations






























Interactive Weather Map New forecast layout! Learn more

10-Day Weather Forecast

Advertisements
Track Severe Weather on mobile